Flight Track Log - Related Links

Times and Time Zones

All times are in EDT time to prevent confusion due to time zone crossing. See the N99AT flight status page for this flight to view local times or setup timezone preferences in your user account.

Time Position Orientation Groundspeed Altitude Reporting Facility
EDT Latitude Longitude Course Direction KTS MPH feet Rate Location/Type
Wed 02:26:51 PM 27.2053 -80.3878 297° West 233 268 7,300  Level Miami Center
Wed 02:27:51 PM 27.1969 -80.4647 263° West 244 281 11,900 3,300 Climbing Miami Center
Wed 02:28:51 PM 27.1761 -80.5481 254° West 266 306 13,900 1,000 Climbing Miami Center
Wed 02:29:51 PM 27.1383 -80.6425 246° West 332 382 13,900  Level Miami Center
Wed 02:30:51 PM 27.0961 -80.7392 244° Southwest 357 411 13,900  Level Miami Center
Wed 02:31:51 PM 27.0492 -80.8517 245° Southwest 357 411 13,900  Level Miami Center
Wed 02:32:52 PM 27.0108 -80.9531 247° West 357 411 13,900  Level Miami Center
Wed 02:33:51 PM 26.9661 -81.0564 244° Southwest 357 411 13,900 -908 Level Miami Center
Wed 02:34:51 PM 26.9278 -81.1550 246° West 357 411 12,100 -1,900 Descending Miami Center
Wed 02:35:51 PM 26.8850 -81.2558 245° Southwest 357 411 10,100 -1,050 Descending Miami Center
Wed 02:36:51 PM 26.8511 -81.3408 246° West 342 394 10,000 -300 Descending Miami Center
Wed 02:37:51 PM 26.8047 -81.4228 238° Southwest 327 376 9,500 -1,000 Descending Miami Center
Wed 02:38:51 PM 26.7258 -81.4103 172° South 251 289 8,000 -750 Descending Miami Center
Wed 02:39:51 PM 26.6447 -81.4003 174° South 271 312 8,000  Level Miami Center
Wed 02:40:51 PM 26.5653 -81.4019 181° South 283 326 8,000  Level Miami Center
Wed 02:41:51 PM 26.4897 -81.4153 189° South 288 331 8,000  Level Miami Center
Wed 02:42:51 PM 26.4178 -81.4425 199° South 276 318 8,000  Level Miami Center
Wed 02:43:51 PM 26.3417 -81.4697 198° South 281 323 8,000  Level Miami Center
Wed 02:45:00 PM 26.2800 -81.5134 233° Southwest  Level FlightAware Approximate
Wed 02:52:00 PM 26.1500 -81.7667 246° West  Level FlightAware Approximate
Wed 02:53:00 PM 26.1524 -81.7756 246° West  Level Estimated
Wed 02:54:00 PM 26.1524 -81.7756 246° West  Level Estimated
Wed 02:55:00 PM 26.1524 -81.7756 246° West  Level Estimated
Wed 02:56:00 PM 26.1524 -81.7756 246° West  Level Estimated
Wed 02:57:00 PM 26.1524 -81.7756 246° West  Level Estimated

Login

Don't have an account? Register now (free) for customized features, flight alerts, and more!